Observation data for O'Donnell on 08/14/2020      Previous  Date  Next       Current Mesonet Observations  Soil Data  Daily Summary Page  Observations in Plain Language
KOES 140500Z 19008KT 30/10 A2998 RMK A01 T03010098  RH  029%=      5-min Rain = 0
KOES 140505Z 20008KT 30/10 A2998 RMK A01 T03000099  RH  030%=      5-min Rain = 0
KOES 140510Z 20008KT 30/10 A2998 RMK A01 T02980099  RH  030%=      5-min Rain = 0
KOES 140515Z 19008KT 30/10 A2998 RMK A01 T02970099  RH  030%=      5-min Rain = 0
KOES 140520Z 19008KT 30/10 A2998 RMK A01 T02970099  RH  030%=      5-min Rain = 0
KOES 140525Z 19008KT 30/10 A2998 RMK A01 T02970100  RH  030%=      5-min Rain = 0
KOES 140530Z 19008KT 30/10 A2999 RMK A01 T02960099  RH  030%=      5-min Rain = 0
KOES 140535Z 19008KT 30/10 A2998 RMK A01 T02950099  RH  031%=      5-min Rain = 0
KOES 140540Z 19009KT 29/10 A2998 RMK A01 T02940099  RH  031%=      5-min Rain = 0
KOES 140545Z 20008KT 29/10 A2998 RMK A01 T02910100  RH  031%=      5-min Rain = 0
KOES 140550Z 20008KT 29/10 A2998 RMK A01 T02890100  RH  032%=      5-min Rain = 0
KOES 140555Z 19008KT 29/10 A2998 RMK A01 T02890100  RH  032%=      5-min Rain = 0
KOES 140600Z 19008KT 29/10 A2998 RMK A01 T02890100  RH  032%=      5-min Rain = 0
KOES 140605Z 19008KT 29/10 A2998 RMK A01 T02890100  RH  032%=      5-min Rain = 0
KOES 140610Z 19008KT 29/10 A2998 RMK A01 T02890100  RH  032%=      5-min Rain = 0
KOES 140615Z 20008KT 29/10 A2998 RMK A01 T02880101  RH  032%=      5-min Rain = 0
KOES 140620Z 20009KT 28/10 A2999 RMK A01 T02840101  RH  033%=      5-min Rain = 0
KOES 140625Z 20008KT 28/10 A2999 RMK A01 T02810102  RH  034%=      5-min Rain = 0
KOES 140630Z 20008KT 28/10 A2999 RMK A01 T02770102  RH  035%=      5-min Rain = 0
KOES 140635Z 19008KT 28/10 A2999 RMK A01 T02770101  RH  034%=      5-min Rain = 0
KOES 140640Z 19008KT 28/10 A2999 RMK A01 T02790102  RH  034%=      5-min Rain = 0
KOES 140645Z 20008KT 28/10 A2998 RMK A01 T02800103  RH  034%=      5-min Rain = 0
KOES 140650Z 20009KT 28/10 A2998 RMK A01 T02780103  RH  035%=      5-min Rain = 0
KOES 140655Z 20009KT 27/10 A2998 RMK A01 T02730103  RH  036%=      5-min Rain = 0
KOES 140700Z 20009KT 27/10 A2998 RMK A01 T02720103  RH  036%=      5-min Rain = 0
KOES 140705Z 20008KT 27/10 A2998 RMK A01 T02740103  RH  035%=      5-min Rain = 0
KOES 140710Z 19008KT 28/10 A2998 RMK A01 T02750103  RH  035%=      5-min Rain = 0
KOES 140715Z 19007KT 28/10 A2998 RMK A01 T02760104  RH  035%=      5-min Rain = 0
KOES 140720Z 20007KT 27/10 A2998 RMK A01 T02740104  RH  036%=      5-min Rain = 0
KOES 140725Z 20008KT 27/10 A2998 RMK A01 T02730104  RH  036%=      5-min Rain = 0
KOES 140730Z 20008KT 27/10 A2998 RMK A01 T02680104  RH  037%=      5-min Rain = 0
KOES 140735Z 21008KT 26/11 A2998 RMK A01 T02630105  RH  038%=      5-min Rain = 0
KOES 140740Z 21007KT 26/11 A2998 RMK A01 T02630105  RH  038%=      5-min Rain = 0
KOES 140745Z 21007KT 26/10 A2998 RMK A01 T02590104  RH  039%=      5-min Rain = 0
KOES 140750Z 21007KT 26/11 A2998 RMK A01 T02590106  RH  039%=      5-min Rain = 0
KOES 140755Z 21008KT 26/11 A2998 RMK A01 T02620107  RH  039%=      5-min Rain = 0
KOES 140800Z 21007KT 26/11 A2999 RMK A01 T02640108  RH  039%=      5-min Rain = 0
KOES 140805Z 21006KT 26/11 A2999 RMK A01 T02630109  RH  039%=      5-min Rain = 0
KOES 140810Z 20006KT 26/11 A2999 RMK A01 T02610110  RH  040%=      5-min Rain = 0
KOES 140815Z 20006KT 26/11 A2999 RMK A01 T02630109  RH  039%=      5-min Rain = 0
KOES 140820Z 20006KT 26/11 A2999 RMK A01 T02620109  RH  040%=      5-min Rain = 0
KOES 140825Z 21007KT 26/11 A2999 RMK A01 T02580109  RH  041%=      5-min Rain = 0
KOES 140830Z 20006KT 26/11 A2999 RMK A01 T02550110  RH  042%=      5-min Rain = 0
KOES 140835Z 21006KT 25/11 A2999 RMK A01 T02530111  RH  042%=      5-min Rain = 0
KOES 140840Z 21006KT 25/11 A2999 RMK A01 T02510112  RH  043%=      5-min Rain = 0
KOES 140845Z 22006KT 25/11 A2999 RMK A01 T02500111  RH  043%=      5-min Rain = 0
KOES 140850Z 22006KT 25/11 A2999 RMK A01 T02480111  RH  044%=      5-min Rain = 0
KOES 140855Z 22006KT 25/11 A2999 RMK A01 T02460111  RH  044%=      5-min Rain = 0
KOES 140900Z 23006KT 24/11 A2999 RMK A01 T02440113  RH  045%=      5-min Rain = 0
KOES 140905Z 23008KT 25/11 A2999 RMK A01 T02470114  RH  045%=      5-min Rain = 0
KOES 140910Z 23008KT 25/11 A2999 RMK A01 T02510113  RH  044%=      5-min Rain = 0
KOES 140915Z 22008KT 25/11 A2998 RMK A01 T02500113  RH  044%=      5-min Rain = 0
KOES 140920Z 21007KT 25/11 A2998 RMK A01 T02470114  RH  045%=      5-min Rain = 0
KOES 140925Z 21007KT 24/11 A2998 RMK A01 T02430114  RH  046%=      5-min Rain = 0
KOES 140930Z 22006KT 24/12 A2998 RMK A01 T02420115  RH  046%=      5-min Rain = 0
KOES 140935Z 22006KT 24/12 A2998 RMK A01 T02420115  RH  046%=      5-min Rain = 0
KOES 140940Z 22005KT 24/11 A2998 RMK A01 T02420114  RH  046%=      5-min Rain = 0
KOES 140945Z 22005KT 24/12 A2998 RMK A01 T02410115  RH  047%=      5-min Rain = 0
KOES 140950Z 22005KT 24/12 A2998 RMK A01 T02390115  RH  047%=      5-min Rain = 0
KOES 140955Z 23005KT 24/12 A2998 RMK A01 T02350115  RH  048%=      5-min Rain = 0
KOES 141000Z 23004KT 23/12 A2998 RMK A01 T02330115  RH  049%=      5-min Rain = 0
KOES 141005Z 23004KT 23/12 A2998 RMK A01 T02310116  RH  050%=      5-min Rain = 0
KOES 141010Z 23004KT 23/12 A2998 RMK A01 T02280117  RH  051%=      5-min Rain = 0
KOES 141015Z 24004KT 23/12 A2999 RMK A01 T02280117  RH  051%=      5-min Rain = 0
KOES 141020Z 26004KT 23/12 A2999 RMK A01 T02270116  RH  051%=      5-min Rain = 0
KOES 141025Z 27005KT 23/12 A2999 RMK A01 T02250119  RH  053%=      5-min Rain = 0
KOES 141030Z 28009KT 23/12 A2999 RMK A01 T02260119  RH  053%=      5-min Rain = 0
KOES 141035Z 29009KT 23/12 A2999 RMK A01 T02250117  RH  053%=      5-min Rain = 0
KOES 141040Z 28008KT 22/12 A2999 RMK A01 T02240118  RH  053%=      5-min Rain = 0
KOES 141045Z 27007KT 23/12 A2999 RMK A01 T02260118  RH  052%=      5-min Rain = 0
KOES 141050Z 26004KT 23/12 A30 RMK A01 T02280118  RH  052%=      5-min Rain = 0
KOES 141055Z 24003KT 22/12 A30 RMK A01 T02240119  RH  054%=      5-min Rain = 0
KOES 141100Z 25004KT 22/12 A30 RMK A01 T02220120  RH  054%=      5-min Rain = 0
KOES 141105Z 26004KT 22/12 A30 RMK A01 T02210121  RH  055%=      5-min Rain = 0
KOES 141110Z 24004KT 22/12 A30 RMK A01 T02190120  RH  055%=      5-min Rain = 0
KOES 141115Z 23003KT 22/12 A30 RMK A01 T02190118  RH  055%=      5-min Rain = 0
KOES 141120Z 23003KT 22/12 A30 RMK A01 T02190118  RH  055%=      5-min Rain = 0
KOES 141125Z 25001KT 22/12 A30 RMK A01 T02180118  RH  055%=      5-min Rain = 0
KOES 141130Z 29001KT 22/12 A30 RMK A01 T02170118  RH  055%=      5-min Rain = 0
KOES 141135Z 30002KT 21/12 A30 RMK A01 T02120118  RH  057%=      5-min Rain = 0
KOES 141140Z 31002KT 21/12 A30 RMK A01 T02080119  RH  059%=      5-min Rain = 0
KOES 141145Z 29002KT 21/12 A30 RMK A01 T02050118  RH  059%=      5-min Rain = 0
KOES 141150Z 28003KT 21/12 A3001 RMK A01 T02050117  RH  059%=      5-min Rain = 0
KOES 141155Z 27003KT 21/12 A3001 RMK A01 T02100117  RH  057%=      5-min Rain = 0
KOES 141200Z 25003KT 21/12 A3001 RMK A01 T02120117  RH  057%=      5-min Rain = 0
KOES 141205Z 26003KT 21/12 A3001 RMK A01 T02110116  RH  057%=      5-min Rain = 0
KOES 141210Z 26005KT 21/12 A3001 RMK A01 T02090116  RH  057%=      5-min Rain = 0
KOES 141215Z 26005KT 21/12 A3001 RMK A01 T02080116  RH  058%=      5-min Rain = 0
KOES 141220Z 23004KT 21/12 A3001 RMK A01 T02060118  RH  059%=      5-min Rain = 0
KOES 141225Z 24004KT 21/12 A3001 RMK A01 T02070119  RH  059%=      5-min Rain = 0
KOES 141230Z 25004KT 21/12 A3001 RMK A01 T02090118  RH  058%=      5-min Rain = 0
KOES 141235Z 25004KT 21/12 A3001 RMK A01 T02120119  RH  057%=      5-min Rain = 0
KOES 141240Z 25004KT 22/12 A3002 RMK A01 T02150120  RH  057%=      5-min Rain = 0
KOES 141245Z 25005KT 22/12 A3002 RMK A01 T02210122  RH  056%=      5-min Rain = 0
KOES 141250Z 24004KT 22/12 A3002 RMK A01 T02230124  RH  056%=      5-min Rain = 0
KOES 141255Z 25005KT 22/13 A3002 RMK A01 T02220125  RH  056%=      5-min Rain = 0
KOES 141300Z 24006KT 23/13 A3002 RMK A01 T02290127  RH  055%=      5-min Rain = 0
KOES 141305Z 24006KT 24/13 A3002 RMK A01 T02370129  RH  053%=      5-min Rain = 0
KOES 141310Z 25007KT 24/13 A3002 RMK A01 T02440129  RH  051%=      5-min Rain = 0
KOES 141315Z 24006KT 25/13 A3002 RMK A01 T02500132  RH  050%=      5-min Rain = 0
KOES 141320Z 23007KT 25/13 A3002 RMK A01 T02530134  RH  050%=      5-min Rain = 0
KOES 141325Z 24006KT 25/13 A3002 RMK A01 T02510134  RH  050%=      5-min Rain = 0
KOES 141330Z 23006KT 25/14 A3002 RMK A01 T02500135  RH  051%=      5-min Rain = 0
KOES 141335Z 23007KT 25/14 A3002 RMK A01 T02500136  RH  051%=      5-min Rain = 0
KOES 141340Z 22006KT 25/14 A3002 RMK A01 T02500137  RH  051%=      5-min Rain = 0
KOES 141345Z 21005KT 25/14 A3002 RMK A01 T02500140  RH  053%=      5-min Rain = 0
KOES 141350Z 22006KT 25/14 A3002 RMK A01 T02510140  RH  052%=      5-min Rain = 0
KOES 141355Z 22007KT 26/14 A3002 RMK A01 T02560137  RH  050%=      5-min Rain = 0
KOES 141400Z 21008KT 26/14 A3002 RMK A01 T02630137  RH  048%=      5-min Rain = 0
KOES 141405Z 21010KT 27/14 A3002 RMK A01 T02700138  RH  046%=      5-min Rain = 0
KOES 141410Z 21011KT 28/14 A3002 RMK A01 T02770139  RH  044%=      5-min Rain = 0
KOES 141415Z 21011KT 28/14 A3002 RMK A01 T02810140  RH  044%=      5-min Rain = 0
KOES 141420Z 21011KT 29/14 A3002 RMK A01 T02870140  RH  043%=      5-min Rain = 0
KOES 141425Z 21013G19KT 29/14 A3002 RMK A01 T02890138  RH  041%=      5-min Rain = 0
KOES 141430Z 20013KT 29/14 A3002 RMK A01 T02910138  RH  041%=      5-min Rain = 0
KOES 141435Z 21014KT 29/14 A3002 RMK A01 T02930138  RH  040%=      5-min Rain = 0
KOES 141440Z 21014KT 30/14 A3002 RMK A01 T02970139  RH  040%=      5-min Rain = 0
KOES 141445Z 22014KT 30/14 A3002 RMK A01 T03030139  RH  038%=      5-min Rain = 0
KOES 141450Z 22014KT 31/14 A3002 RMK A01 T03070138  RH  037%=      5-min Rain = 0
KOES 141455Z 22013KT 31/14 A3002 RMK A01 T03080137  RH  037%=      5-min Rain = 0
KOES 141500Z 23012KT 31/14 A3003 RMK A01 T03120137  RH  036%=      5-min Rain = 0
KOES 141505Z 23013G18KT 31/14 A3003 RMK A01 T03140136  RH  035%=      5-min Rain = 0
KOES 141510Z 22013KT 32/14 A3002 RMK A01 T03150137  RH  035%=      5-min Rain = 0
KOES 141515Z 23014KT 31/14 A3003 RMK A01 T03130136  RH  035%=      5-min Rain = 0
KOES 141520Z 23013KT 32/14 A3003 RMK A01 T03150136  RH  035%=      5-min Rain = 0
KOES 141525Z 22011KT 32/14 A3003 RMK A01 T03170139  RH  035%=      5-min Rain = 0
KOES 141530Z 23011KT 32/14 A3003 RMK A01 T03160137  RH  035%=      5-min Rain = 0
KOES 141535Z 23011KT 32/14 A3003 RMK A01 T03150138  RH  036%=      5-min Rain = 0
KOES 141540Z 22013KT 32/14 A3002 RMK A01 T03180137  RH  035%=      5-min Rain = 0
KOES 141545Z 22013KT 32/14 A3002 RMK A01 T03240136  RH  033%=      5-min Rain = 0
KOES 141550Z 22013KT 33/14 A3002 RMK A01 T03300139  RH  033%=      5-min Rain = 0
KOES 141555Z 21013KT 33/14 A3002 RMK A01 T03310138  RH  033%=      5-min Rain = 0
KOES 141600Z 22012KT 33/14 A3002 RMK A01 T03340137  RH  032%=      5-min Rain = 0
KOES 141605Z 21011KT 34/14 A3002 RMK A01 T03380137  RH  031%=      5-min Rain = 0
KOES 141610Z 22010KT 35/14 A3002 RMK A01 T03450135  RH  029%=      5-min Rain = 0
KOES 141615Z 24012KT 34/13 A3002 RMK A01 T03440130  RH  029%=      5-min Rain = 0
KOES 141620Z 24011KT 35/13 A3002 RMK A01 T03470129  RH  028%=      5-min Rain = 0
KOES 141625Z 24011KT 35/13 A3002 RMK A01 T03460128  RH  028%=      5-min Rain = 0
KOES 141630Z 22011G16KT 35/13 A3002 RMK A01 T03480133  RH  029%=      5-min Rain = 0
KOES 141635Z 23011KT 35/13 A3002 RMK A01 T03520130  RH  027%=      5-min Rain = 0
KOES 141640Z 24010KT 35/13 A3002 RMK A01 T03530131  RH  027%=      5-min Rain = 0
KOES 141645Z 25009G14KT 36/13 A3003 RMK A01 T03560131  RH  027%=      5-min Rain = 0
KOES 141650Z 24009KT 36/13 A3003 RMK A01 T03610132  RH  026%=      5-min Rain = 0
KOES 141655Z 25010G16KT 36/13 A3003 RMK A01 T03600133  RH  027%=      5-min Rain = 0
KOES 141700Z 23011KT 36/13 A3002 RMK A01 T03610132  RH  026%=      5-min Rain = 0
KOES 141705Z 23011KT 37/13 A3002 RMK A01 T03650132  RH  026%=      5-min Rain = 0
KOES 141710Z 23011G16KT 37/13 A3002 RMK A01 T03690129  RH  025%=      5-min Rain = 0
KOES 141715Z 24011KT 37/12 A3002 RMK A01 T03690124  RH  024%=      5-min Rain = 0
KOES 141720Z 24011KT 37/12 A3002 RMK A01 T03720121  RH  023%=      5-min Rain = 0
KOES 141725Z 23011KT 37/12 A3002 RMK A01 T03740123  RH  023%=      5-min Rain = 0
KOES 141730Z 22011KT 38/12 A3002 RMK A01 T03760124  RH  023%=      5-min Rain = 0
KOES 141735Z 22009KT 38/12 A3001 RMK A01 T03760121  RH  023%=      5-min Rain = 0
KOES 141740Z 22009KT 37/12 A3001 RMK A01 T03740117  RH  022%=      5-min Rain = 0
KOES 141745Z 21010KT 38/12 A3001 RMK A01 T03760116  RH  022%=      5-min Rain = 0
KOES 141750Z 23008KT 38/12 A3001 RMK A01 T03770117  RH  022%=      5-min Rain = 0
KOES 141755Z 24010G15KT 38/12 A3001 RMK A01 T03800116  RH  021%=      5-min Rain = 0
KOES 141800Z 22008KT 38/12 A3001 RMK A01 T03800116  RH  021%=      5-min Rain = 0
KOES 141805Z 22010KT 38/11 A3001 RMK A01 T03810112  RH  021%=      5-min Rain = 0
KOES 141810Z 23009G14KT 38/11 A30 RMK A01 T03840110  RH  020%=      5-min Rain = 0
KOES 141815Z 25011G17KT 39/11 A30 RMK A01 T03940105  RH  018%=      5-min Rain = 0
KOES 141820Z 23010G16KT 39/10 A30 RMK A01 T03930100  RH  018%=      5-min Rain = 0
KOES 141825Z 25009G15KT 40/10 A30 RMK A01 T03980100  RH  017%=      5-min Rain = 0
KOES 141830Z 24012KT 40/09 A30 RMK A01 T03960094  RH  017%=      5-min Rain = 0
KOES 141835Z 25012G18KT 40/09 A30 RMK A01 T03950092  RH  017%=      5-min Rain = 0
KOES 141840Z 24010KT 40/10 A30 RMK A01 T03990101  RH  017%=      5-min Rain = 0
KOES 141845Z 24012G17KT 40/11 A30 RMK A01 T03960105  RH  018%=      5-min Rain = 0
KOES 141850Z 23012G18KT 39/10 A30 RMK A01 T03890102  RH  018%=      5-min Rain = 0
KOES 141855Z 25011KT 39/11 A30 RMK A01 T03870106  RH  019%=      5-min Rain = 0
KOES 141900Z 24013G19KT 39/11 A30 RMK A01 T03890107  RH  019%=      5-min Rain = 0
KOES 141905Z 26012KT 39/11 A2999 RMK A01 T03900111  RH  020%=      5-min Rain = 0
KOES 141910Z 24012KT 39/11 A2999 RMK A01 T03880112  RH  020%=      5-min Rain = 0
KOES 141915Z 23012KT 39/11 A2999 RMK A01 T03860114  RH  020%=      5-min Rain = 0
KOES 141920Z 25013KT 39/11 A2999 RMK A01 T03850107  RH  020%=      5-min Rain = 0
KOES 141925Z 25011G17KT 39/10 A2999 RMK A01 T03850103  RH  019%=      5-min Rain = 0
KOES 141930Z 26012KT 39/11 A2999 RMK A01 T03860111  RH  020%=      5-min Rain = 0
KOES 141935Z 28010G15KT 39/11 A2998 RMK A01 T03870105  RH  019%=      5-min Rain = 0
KOES 141940Z 28009KT 39/10 A2998 RMK A01 T03870099  RH  018%=      5-min Rain = 0
KOES 141945Z 27009KT 39/11 A2998 RMK A01 T03870110  RH  020%=      5-min Rain = 0
KOES 141950Z 27008KT 39/10 A2998 RMK A01 T03850101  RH  019%=      5-min Rain = 0
KOES 141955Z 26007KT 39/11 A2998 RMK A01 T03860108  RH  020%=      5-min Rain = 0
KOES 142000Z 26008KT 38/10 A2998 RMK A01 T03840102  RH  019%=      5-min Rain = 0
KOES 142005Z 28007KT 39/11 A2998 RMK A01 T03870107  RH  019%=      5-min Rain = 0
KOES 142010Z 29009KT 39/10 A2998 RMK A01 T03850098  RH  018%=      5-min Rain = 0
KOES 142015Z 28008KT 39/10 A2997 RMK A01 T03860098  RH  018%=      5-min Rain = 0
KOES 142020Z 26008KT 39/11 A2997 RMK A01 T03900106  RH  019%=      5-min Rain = 0
KOES 142025Z 27008KT 40/11 A2997 RMK A01 T03960107  RH  018%=      5-min Rain = 0
KOES 142030Z 26010G15KT 40/11 A2997 RMK A01 T03980113  RH  019%=      5-min Rain = 0
KOES 142035Z 26012KT 40/11 A2996 RMK A01 T03960112  RH  019%=      5-min Rain = 0
KOES 142040Z 26012KT 40/11 A2996 RMK A01 T03970107  RH  018%=      5-min Rain = 0
KOES 142045Z 26011KT 40/10 A2996 RMK A01 T03980099  RH  017%=      5-min Rain = 0
KOES 142050Z 25013KT 40/09 A2996 RMK A01 T03990093  RH  016%=      5-min Rain = 0
KOES 142055Z 27012KT 41/10 A2996 RMK A01 T04070098  RH  016%=      5-min Rain = 0
KOES 142100Z 25015G20KT 41/09 A2995 RMK A01 T04050092  RH  016%=      5-min Rain = 0
KOES 142105Z 25014G19KT 40/09 A2995 RMK A01 T04000094  RH  017%=      5-min Rain = 0
KOES 142110Z 25015G22KT 40/10 A2995 RMK A01 T04030095  RH  016%=      5-min Rain = 0
KOES 142115Z 24017G23KT 40/09 A2995 RMK A01 T03980085  RH  016%=      5-min Rain = 0
KOES 142120Z 24016G23KT 40/08 A2994 RMK A01 T03990076  RH  015%=      5-min Rain = 0
KOES 142125Z 24015G21KT 40/08 A2994 RMK A01 T04000076  RH  015%=      5-min Rain = 0
KOES 142130Z 24016KT 40/08 A2994 RMK A01 T03990078  RH  015%=      5-min Rain = 0
KOES 142135Z 24016KT 40/07 A2994 RMK A01 T03980072  RH  014%=      5-min Rain = 0
KOES 142140Z 24017G24KT 40/08 A2994 RMK A01 T03990075  RH  014%=      5-min Rain = 0
KOES 142145Z 24016G22KT 40/08 A2994 RMK A01 T03970075  RH  015%=      5-min Rain = 0
KOES 142150Z 24017G22KT 40/07 A2993 RMK A01 T03970074  RH  015%=      5-min Rain = 0
KOES 142155Z 24017KT 40/07 A2993 RMK A01 T03960072  RH  014%=      5-min Rain = 0
KOES 142200Z 24016G21KT 40/07 A2993 RMK A01 T03990069  RH  014%=      5-min Rain = 0
KOES 142205Z 25016G21KT 40/07 A2993 RMK A01 T03960066  RH  014%=      5-min Rain = 0
KOES 142210Z 24014G19KT 40/07 A2993 RMK A01 T03980070  RH  014%=      5-min Rain = 0
KOES 142215Z 24015KT 40/07 A2993 RMK A01 T03970068  RH  014%=      5-min Rain = 0
KOES 142220Z 24014G19KT 40/07 A2993 RMK A01 T03980069  RH  014%=      5-min Rain = 0
KOES 142225Z 23012KT 40/07 A2992 RMK A01 T03980069  RH  014%=      5-min Rain = 0
KOES 142230Z 23012KT 40/07 A2992 RMK A01 T04000070  RH  014%=      5-min Rain = 0
KOES 142235Z 22010KT 40/07 A2992 RMK A01 T04000069  RH  014%=      5-min Rain = 0
KOES 142240Z 23011G17KT 40/07 A2992 RMK A01 T04010069  RH  014%=      5-min Rain = 0
KOES 142245Z 23014KT 40/07 A2992 RMK A01 T03980067  RH  014%=      5-min Rain = 0
KOES 142250Z 24013G18KT 40/06 A2993 RMK A01 T03950064  RH  014%=      5-min Rain = 0
KOES 142255Z 22012KT 39/07 A2993 RMK A01 T03920066  RH  014%=      5-min Rain = 0
KOES 142300Z 23010KT 39/07 A2993 RMK A01 T03900069  RH  015%=      5-min Rain = 0
KOES 142305Z 25010KT 39/07 A2993 RMK A01 T03920072  RH  015%=      5-min Rain = 0
KOES 142310Z 24009G14KT 39/07 A2993 RMK A01 T03940072  RH  015%=      5-min Rain = 0
KOES 142315Z 23011KT 39/07 A2993 RMK A01 T03920073  RH  015%=      5-min Rain = 0
KOES 142320Z 24013KT 39/07 A2993 RMK A01 T03920071  RH  015%=      5-min Rain = 0
KOES 142325Z 23012KT 39/07 A2993 RMK A01 T03920068  RH  014%=      5-min Rain = 0
KOES 142330Z 22010KT 39/07 A2992 RMK A01 T03920069  RH  014%=      5-min Rain = 0
KOES 142335Z 22011KT 39/07 A2993 RMK A01 T03910067  RH  014%=      5-min Rain = 0
KOES 142340Z 23009KT 39/07 A2992 RMK A01 T03880067  RH  015%=      5-min Rain = 0
KOES 142345Z 23009KT 39/07 A2992 RMK A01 T03860069  RH  015%=      5-min Rain = 0
KOES 142350Z 24009KT 39/07 A2992 RMK A01 T03870067  RH  015%=      5-min Rain = 0
KOES 142355Z 24008KT 39/07 A2992 RMK A01 T03870067  RH  015%=      5-min Rain = 0
KOES 150000Z 24007KT 39/07 A2992 RMK A01 T03860069  RH  015%=      5-min Rain = 0
KOES 150005Z 24007KT 38/08 A2992 RMK A01 T03800078  RH  016%=      5-min Rain = 0
KOES 150010Z 24006KT 38/08 A2993 RMK A01 T03770083  RH  017%=      5-min Rain = 0
KOES 150015Z 24006KT 38/08 A2993 RMK A01 T03780079  RH  017%=      5-min Rain = 0
KOES 150020Z 24006KT 38/08 A2993 RMK A01 T03800076  RH  016%=      5-min Rain = 0
KOES 150025Z 24006KT 38/08 A2993 RMK A01 T03810075  RH  016%=      5-min Rain = 0
KOES 150030Z 25005KT 38/08 A2993 RMK A01 T03810080  RH  017%=      5-min Rain = 0
KOES 150035Z 25005KT 38/08 A2993 RMK A01 T03790083  RH  017%=      5-min Rain = 0
KOES 150040Z 24004KT 38/09 A2994 RMK A01 T03780085  RH  017%=      5-min Rain = 0
KOES 150045Z 25004KT 38/09 A2994 RMK A01 T03770086  RH  018%=      5-min Rain = 0
KOES 150050Z 25003KT 38/09 A2994 RMK A01 T03770090  RH  018%=      5-min Rain = 0
KOES 150055Z 24004KT 38/10 A2994 RMK A01 T03750095  RH  019%=      5-min Rain = 0
KOES 150100Z 24003KT 37/09 A2994 RMK A01 T03740094  RH  019%=      5-min Rain = 0
KOES 150105Z 22002KT 37/10 A2994 RMK A01 T03740099  RH  020%=      5-min Rain = 0
KOES 150110Z 22003KT 37/11 A2995 RMK A01 T03680105  RH  021%=      5-min Rain = 0
KOES 150115Z 19003KT 36/10 A2995 RMK A01 T03620103  RH  022%=      5-min Rain = 0
KOES 150120Z 20003KT 36/10 A2995 RMK A01 T03610100  RH  021%=      5-min Rain = 0
KOES 150125Z 17002KT 36/10 A2995 RMK A01 T03590101  RH  022%=      5-min Rain = 0
KOES 150130Z 16002KT 36/10 A2995 RMK A01 T03570099  RH  021%=      5-min Rain = 0
KOES 150135Z 15002KT 36/11 A2995 RMK A01 T03560106  RH  023%=      5-min Rain = 0
KOES 150140Z 16002KT 35/11 A2995 RMK A01 T03540112  RH  024%=      5-min Rain = 0
KOES 150145Z 12002KT 35/11 A2995 RMK A01 T03500113  RH  025%=      5-min Rain = 0
KOES 150150Z 05009G21KT 34/12 A2996 RMK A01 T03370123  RH  028%=      5-min Rain = 0
KOES 150155Z 05015G23KT 33/11 A2997 RMK A01 T03310114  RH  028%=      5-min Rain = 0
KOES 150200Z 06013G21KT 33/12 A2997 RMK A01 T03250116  RH  029%=      5-min Rain = 0
KOES 150205Z 06014KT 32/12 A2997 RMK A01 T03230116  RH  029%=      5-min Rain = 0
KOES 150210Z 06014G19KT 32/12 A2997 RMK A01 T03210117  RH  030%=      5-min Rain = 0
KOES 150215Z 05013KT 32/12 A2998 RMK A01 T03180118  RH  030%=      5-min Rain = 0
KOES 150220Z 05013G18KT 32/12 A2998 RMK A01 T03160120  RH  031%=      5-min Rain = 0
KOES 150225Z 05013KT 31/12 A2998 RMK A01 T03130123  RH  032%=      5-min Rain = 0
KOES 150230Z 05013KT 31/12 A2998 RMK A01 T03100124  RH  033%=      5-min Rain = 0
KOES 150235Z 05013G19KT 31/12 A2999 RMK A01 T03080124  RH  034%=      5-min Rain = 0
KOES 150240Z 05011KT 31/12 A2999 RMK A01 T03060124  RH  034%=      5-min Rain = 0
KOES 150245Z 06010KT 30/12 A2999 RMK A01 T03030123  RH  034%=      5-min Rain = 0
KOES 150250Z 06011KT 30/12 A2999 RMK A01 T03010123  RH  035%=      5-min Rain = 0
KOES 150255Z 05011KT 30/12 A2999 RMK A01 T02990121  RH  035%=      5-min Rain = 0
KOES 150300Z 05012G17KT 30/12 A30 RMK A01 T02970119  RH  034%=      5-min Rain = 0
KOES 150305Z 05013KT 30/12 A30 RMK A01 T02980118  RH  034%=      5-min Rain = 0
KOES 150310Z 05011G17KT 30/12 A30 RMK A01 T02970118  RH  034%=      5-min Rain = 0
KOES 150315Z 05010KT 29/12 A30 RMK A01 T02940119  RH  035%=      5-min Rain = 0
KOES 150320Z 05011KT 29/12 A30 RMK A01 T02910122  RH  036%=      5-min Rain = 0
KOES 150325Z 05013KT 29/12 A30 RMK A01 T02910124  RH  037%=      5-min Rain = 0
KOES 150330Z 06013G18KT 29/12 A30 RMK A01 T02910122  RH  037%=      5-min Rain = 0
KOES 150335Z 06012KT 29/12 A30 RMK A01 T02910120  RH  036%=      5-min Rain = 0
KOES 150340Z 06013KT 29/12 A30 RMK A01 T02920119  RH  036%=      5-min Rain = 0
KOES 150345Z 06013G18KT 29/12 A30 RMK A01 T02920117  RH  035%=      5-min Rain = 0
KOES 150350Z 05013KT 29/12 A3001 RMK A01 T02930115  RH  035%=      5-min Rain = 0
KOES 150355Z 05011G18KT 29/12 A3001 RMK A01 T02930115  RH  034%=      5-min Rain = 0
KOES 150400Z 04009G14KT 29/12 A3001 RMK A01 T02920115  RH  035%=      5-min Rain = 0
KOES 150405Z 01009KT 29/11 A3002 RMK A01 T02920114  RH  035%=      5-min Rain = 0
KOES 150410Z 00008KT 29/11 A3003 RMK A01 T02910114  RH  035%=      5-min Rain = 0
KOES 150415Z 36006KT 29/12 A3004 RMK A01 T02890116  RH  036%=      5-min Rain = 0
KOES 150420Z 02006KT 29/12 A3004 RMK A01 T02880116  RH  036%=      5-min Rain = 0
KOES 150425Z 02006KT 29/12 A3004 RMK A01 T02870115  RH  036%=      5-min Rain = 0
KOES 150430Z 01006KT 29/12 A3004 RMK A01 T02850116  RH  036%=      5-min Rain = 0
KOES 150435Z 35005KT 28/12 A3004 RMK A01 T02840115  RH  036%=      5-min Rain = 0
KOES 150440Z 34005KT 28/12 A3004 RMK A01 T02820116  RH  037%=      5-min Rain = 0
KOES 150445Z 34005KT 28/12 A3004 RMK A01 T02810115  RH  037%=      5-min Rain = 0
KOES 150450Z 01004KT 28/12 A3004 RMK A01 T02790116  RH  038%=      5-min Rain = 0
KOES 150455Z 03004KT 27/12 A3003 RMK A01 T02740117  RH  039%=      5-min Rain = 0

Page generated in 0.0093 seconds.